sensor_id;sensor_type;location;lat;lon;timestamp;P1;durP1;ratioP1;P2;durP2;ratioP2
57697;SDS011;43531;52.152;6.366;2023-10-13T00:00:11;27.33;;;16.25;;
57697;SDS011;43531;52.152;6.366;2023-10-13T00:00:56;21.35;;;16.50;;
57697;SDS011;43531;52.152;6.366;2023-10-13T00:01:35;21.80;;;17.27;;
57697;SDS011;43531;52.152;6.366;2023-10-13T00:02:07;24.77;;;17.73;;
57697;SDS011;43531;52.152;6.366;2023-10-13T00:02:39;27.60;;;16.73;;
57697;SDS011;43531;52.152;6.366;2023-10-13T00:03:11;24.88;;;17.17;;
57697;SDS011;43531;52.152;6.366;2023-10-13T00:03:50;22.85;;;16.77;;
57697;SDS011;43531;52.152;6.366;2023-10-13T00:04:24;25.25;;;16.92;;
57697;SDS011;43531;52.152;6.366;2023-10-13T00:04:56;22.45;;;15.68;;
57697;SDS011;43531;52.152;6.366;2023-10-13T00:05:29;31.00;;;17.52;;
57697;SDS011;43531;52.152;6.366;2023-10-13T00:06:02;23.45;;;15.60;;
57697;SDS011;43531;52.152;6.366;2023-10-13T00:06:34;20.45;;;15.60;;
57697;SDS011;43531;52.152;6.366;2023-10-13T00:07:06;28.85;;;16.45;;
57697;SDS011;43531;52.152;6.366;2023-10-13T00:07:41;22.48;;;18.15;;
57697;SDS011;43531;52.152;6.366;2023-10-13T00:08:13;27.17;;;17.70;;
57697;SDS011;43531;52.152;6.366;2023-10-13T00:08:45;24.40;;;17.33;;
57697;SDS011;43531;52.152;6.366;2023-10-13T00:09:17;26.75;;;16.90;;
57697;SDS011;43531;52.152;6.366;2023-10-13T00:09:50;33.55;;;17.80;;
57697;SDS011;43531;52.152;6.366;2023-10-13T00:10:22;30.52;;;17.52;;
57697;SDS011;43531;52.152;6.366;2023-10-13T00:10:56;25.05;;;17.98;;
57697;SDS011;43531;52.152;6.366;2023-10-13T00:11:31;20.67;;;14.93;;
57697;SDS011;43531;52.152;6.366;2023-10-13T00:12:03;26.25;;;17.58;;
57697;SDS011;43531;52.152;6.366;2023-10-13T00:12:45;22.23;;;17.08;;
57697;SDS011;43531;52.152;6.366;2023-10-13T00:13:21;21.52;;;17.67;;
57697;SDS011;43531;52.152;6.366;2023-10-13T00:13:52;26.38;;;17.70;;
57697;SDS011;43531;52.152;6.366;2023-10-13T00:14:25;29.88;;;17.75;;
57697;SDS011;43531;52.152;6.366;2023-10-13T00:15:06;28.00;;;16.73;;
57697;SDS011;43531;52.152;6.366;2023-10-13T00:15:45;27.48;;;16.08;;
57697;SDS011;43531;52.152;6.366;2023-10-13T00:16:28;20.92;;;16.05;;
57697;SDS011;43531;52.152;6.366;2023-10-13T00:17:01;26.48;;;16.70;;
57697;SDS011;43531;52.152;6.366;2023-10-13T00:17:37;29.70;;;16.10;;
57697;SDS011;43531;52.152;6.366;2023-10-13T00:18:10;24.17;;;18.48;;
57697;SDS011;43531;52.152;6.366;2023-10-13T00:18:45;24.13;;;16.08;;
57697;SDS011;43531;52.152;6.366;2023-10-13T00:19:17;25.45;;;17.27;;
57697;SDS011;43531;52.152;6.366;2023-10-13T00:19:49;23.48;;;17.58;;
57697;SDS011;43531;52.152;6.366;2023-10-13T00:20:24;25.15;;;17.30;;
57697;SDS011;43531;52.152;6.366;2023-10-13T00:21:07;22.98;;;15.18;;
57697;SDS011;43531;52.152;6.366;2023-10-13T00:21:46;23.75;;;17.92;;
57697;SDS011;43531;52.152;6.366;2023-10-13T00:22:18;22.98;;;15.10;;
57697;SDS011;43531;52.152;6.366;2023-10-13T00:22:51;26.38;;;16.70;;
57697;SDS011;43531;52.152;6.366;2023-10-13T00:23:23;31.35;;;18.05;;
57697;SDS011;43531;52.152;6.366;2023-10-13T00:23:58;29.15;;;18.00;;
57697;SDS011;43531;52.152;6.366;2023-10-13T00:24:32;26.23;;;16.95;;
57697;SDS011;43531;52.152;6.366;2023-10-13T00:25:11;28.10;;;18.17;;
57697;SDS011;43531;52.152;6.366;2023-10-13T00:25:53;24.13;;;16.02;;
57697;SDS011;43531;52.152;6.366;2023-10-13T00:26:29;25.95;;;17.15;;
57697;SDS011;43531;52.152;6.366;2023-10-13T00:27:04;23.13;;;17.52;;
57697;SDS011;43531;52.152;6.366;2023-10-13T00:27:36;23.42;;;17.38;;
57697;SDS011;43531;52.152;6.366;2023-10-13T00:28:12;26.95;;;17.50;;
57697;SDS011;43531;52.152;6.366;2023-10-13T00:28:54;28.23;;;18.33;;
57697;SDS011;43531;52.152;6.366;2023-10-13T00:29:39;29.38;;;18.67;;
57697;SDS011;43531;52.152;6.366;2023-10-13T00:30:10;26.63;;;17.70;;
57697;SDS011;43531;52.152;6.366;2023-10-13T00:30:49;31.50;;;18.70;;
57697;SDS011;43531;52.152;6.366;2023-10-13T00:31:25;31.08;;;17.88;;
57697;SDS011;43531;52.152;6.366;2023-10-13T00:32:07;26.92;;;18.80;;
57697;SDS011;43531;52.152;6.366;2023-10-13T00:32:43;27.48;;;17.98;;
57697;SDS011;43531;52.152;6.366;2023-10-13T00:33:16;33.55;;;19.40;;
57697;SDS011;43531;52.152;6.366;2023-10-13T00:33:51;22.73;;;17.17;;
57697;SDS011;43531;52.152;6.366;2023-10-13T00:34:27;23.73;;;17.23;;
57697;SDS011;43531;52.152;6.366;2023-10-13T00:35:04;32.58;;;19.02;;
57697;SDS011;43531;52.152;6.366;2023-10-13T00:35:36;24.17;;;18.27;;
57697;SDS011;43531;52.152;6.366;2023-10-13T00:36:09;22.75;;;18.00;;
57697;SDS011;43531;52.152;6.366;2023-10-13T00:36:48;29.88;;;18.30;;
57697;SDS011;43531;52.152;6.366;2023-10-13T00:37:20;28.40;;;19.10;;
57697;SDS011;43531;52.152;6.366;2023-10-13T00:37:59;29.15;;;17.63;;
57697;SDS011;43531;52.152;6.366;2023-10-13T00:38:35;29.73;;;19.08;;
57697;SDS011;43531;52.152;6.366;2023-10-13T00:39:08;34.88;;;19.02;;
57697;SDS011;43531;52.152;6.366;2023-10-13T00:39:39;27.17;;;17.95;;
57697;SDS011;43531;52.152;6.366;2023-10-13T00:40:15;36.17;;;20.17;;
57697;SDS011;43531;52.152;6.366;2023-10-13T00:41:10;28.90;;;16.25;;
57697;SDS011;43531;52.152;6.366;2023-10-13T00:41:46;26.52;;;17.58;;
57697;SDS011;43531;52.152;6.366;2023-10-13T00:42:27;25.75;;;16.95;;
57697;SDS011;43531;52.152;6.366;2023-10-13T00:43:19;31.05;;;18.08;;
57697;SDS011;43531;52.152;6.366;2023-10-13T00:43:51;29.45;;;17.20;;
57697;SDS011;43531;52.152;6.366;2023-10-13T00:44:36;24.33;;;17.10;;
57697;SDS011;43531;52.152;6.366;2023-10-13T00:45:13;30.58;;;17.63;;
57697;SDS011;43531;52.152;6.366;2023-10-13T00:45:50;24.50;;;18.17;;
57697;SDS011;43531;52.152;6.366;2023-10-13T00:46:27;27.08;;;16.60;;
57697;SDS011;43531;52.152;6.366;2023-10-13T00:47:04;27.33;;;17.00;;
57697;SDS011;43531;52.152;6.366;2023-10-13T00:47:39;26.70;;;17.55;;
57697;SDS011;43531;52.152;6.366;2023-10-13T00:48:11;26.48;;;18.10;;
57697;SDS011;43531;52.152;6.366;2023-10-13T00:48:47;26.95;;;16.40;;
57697;SDS011;43531;52.152;6.366;2023-10-13T00:49:26;25.83;;;17.13;;
57697;SDS011;43531;52.152;6.366;2023-10-13T00:49:57;24.73;;;16.20;;
57697;SDS011;43531;52.152;6.366;2023-10-13T00:50:30;22.25;;;15.60;;
57697;SDS011;43531;52.152;6.366;2023-10-13T00:51:03;25.05;;;17.50;;
57697;SDS011;43531;52.152;6.366;2023-10-13T00:51:38;21.92;;;15.82;;
57697;SDS011;43531;52.152;6.366;2023-10-13T00:52:12;33.45;;;16.88;;
57697;SDS011;43531;52.152;6.366;2023-10-13T00:52:47;25.13;;;17.77;;
57697;SDS011;43531;52.152;6.366;2023-10-13T00:53:23;22.17;;;16.75;;
57697;SDS011;43531;52.152;6.366;2023-10-13T00:53:56;24.40;;;16.75;;
57697;SDS011;43531;52.152;6.366;2023-10-13T00:54:28;25.25;;;16.02;;
57697;SDS011;43531;52.152;6.366;2023-10-13T00:54:59;29.08;;;17.13;;
57697;SDS011;43531;52.152;6.366;2023-10-13T00:55:32;24.48;;;15.35;;
57697;SDS011;43531;52.152;6.366;2023-10-13T00:56:05;31.40;;;16.95;;
57697;SDS011;43531;52.152;6.366;2023-10-13T00:56:49;26.08;;;15.18;;
57697;SDS011;43531;52.152;6.366;2023-10-13T00:57:29;27.10;;;15.38;;
57697;SDS011;43531;52.152;6.366;2023-10-13T00:58:03;24.70;;;15.65;;
57697;SDS011;43531;52.152;6.366;2023-10-13T00:58:35;23.63;;;15.10;;
57697;SDS011;43531;52.152;6.366;2023-10-13T00:59:10;29.52;;;16.80;;
57697;SDS011;43531;52.152;6.366;2023-10-13T00:59:45;26.58;;;17.05;;
57697;SDS011;43531;52.152;6.366;2023-10-13T01:00:19;20.17;;;14.07;;
57697;SDS011;43531;52.152;6.366;2023-10-13T01:00:50;24.25;;;15.57;;
57697;SDS011;43531;52.152;6.366;2023-10-13T01:01:30;24.05;;;15.25;;
57697;SDS011;43531;52.152;6.366;2023-10-13T01:02:05;27.08;;;17.13;;
57697;SDS011;43531;52.152;6.366;2023-10-13T01:03:00;24.52;;;14.18;;
57697;SDS011;43531;52.152;6.366;2023-10-13T01:03:38;24.10;;;16.05;;
57697;SDS011;43531;52.152;6.366;2023-10-13T01:04:10;23.42;;;14.18;;
57697;SDS011;43531;52.152;6.366;2023-10-13T01:04:44;21.83;;;14.00;;
57697;SDS011;43531;52.152;6.366;2023-10-13T01:05:18;20.30;;;15.63;;
57697;SDS011;43531;52.152;6.366;2023-10-13T01:05:52;24.60;;;15.32;;
57697;SDS011;43531;52.152;6.366;2023-10-13T01:06:28;23.00;;;16.30;;
57697;SDS011;43531;52.152;6.366;2023-10-13T01:07:00;19.65;;;14.88;;
57697;SDS011;43531;52.152;6.366;2023-10-13T01:07:31;19.27;;;15.52;;
57697;SDS011;43531;52.152;6.366;2023-10-13T01:08:03;20.52;;;15.18;;
57697;SDS011;43531;52.152;6.366;2023-10-13T01:08:35;28.67;;;14.50;;
57697;SDS011;43531;52.152;6.366;2023-10-13T01:09:10;25.05;;;15.95;;
57697;SDS011;43531;52.152;6.366;2023-10-13T01:09:48;23.73;;;15.23;;
57697;SDS011;43531;52.152;6.366;2023-10-13T01:10:19;19.77;;;14.70;;
57697;SDS011;43531;52.152;6.366;2023-10-13T01:10:52;23.55;;;14.25;;
57697;SDS011;43531;52.152;6.366;2023-10-13T01:11:25;24.98;;;15.40;;
57697;SDS011;43531;52.152;6.366;2023-10-13T01:11:58;24.30;;;15.32;;
57697;SDS011;43531;52.152;6.366;2023-10-13T01:12:32;24.25;;;15.55;;
57697;SDS011;43531;52.152;6.366;2023-10-13T01:13:03;23.83;;;14.90;;
57697;SDS011;43531;52.152;6.366;2023-10-13T01:13:36;22.13;;;15.55;;
57697;SDS011;43531;52.152;6.366;2023-10-13T01:14:08;18.65;;;13.80;;
57697;SDS011;43531;52.152;6.366;2023-10-13T01:14:42;19.48;;;14.43;;
57697;SDS011;43531;52.152;6.366;2023-10-13T01:15:15;24.23;;;14.85;;
57697;SDS011;43531;52.152;6.366;2023-10-13T01:15:52;20.02;;;13.88;;
57697;SDS011;43531;52.152;6.366;2023-10-13T01:16:24;25.10;;;14.70;;
57697;SDS011;43531;52.152;6.366;2023-10-13T01:16:58;18.75;;;14.25;;
57697;SDS011;43531;52.152;6.366;2023-10-13T01:17:33;22.20;;;14.25;;
57697;SDS011;43531;52.152;6.366;2023-10-13T01:18:08;23.10;;;14.25;;
57697;SDS011;43531;52.152;6.366;2023-10-13T01:18:44;23.85;;;13.90;;
57697;SDS011;43531;52.152;6.366;2023-10-13T01:19:20;22.45;;;14.93;;
57697;SDS011;43531;52.152;6.366;2023-10-13T01:19:57;24.13;;;15.38;;
57697;SDS011;43531;52.152;6.366;2023-10-13T01:20:30;23.15;;;14.15;;
57697;SDS011;43531;52.152;6.366;2023-10-13T01:21:04;20.15;;;14.68;;
57697;SDS011;43531;52.152;6.366;2023-10-13T01:21:36;21.98;;;14.65;;
57697;SDS011;43531;52.152;6.366;2023-10-13T01:22:08;19.70;;;14.75;;
57697;SDS011;43531;52.152;6.366;2023-10-13T01:22:41;23.85;;;14.32;;
57697;SDS011;43531;52.152;6.366;2023-10-13T01:23:12;18.83;;;13.68;;
57697;SDS011;43531;52.152;6.366;2023-10-13T01:23:50;19.60;;;13.90;;
57697;SDS011;43531;52.152;6.366;2023-10-13T01:24:22;25.23;;;14.85;;
57697;SDS011;43531;52.152;6.366;2023-10-13T01:24:57;20.42;;;13.85;;
57697;SDS011;43531;52.152;6.366;2023-10-13T01:25:36;26.98;;;15.48;;
57697;SDS011;43531;52.152;6.366;2023-10-13T01:26:08;19.50;;;13.02;;
57697;SDS011;43531;52.152;6.366;2023-10-13T01:26:40;21.30;;;15.52;;
57697;SDS011;43531;52.152;6.366;2023-10-13T01:27:13;23.52;;;15.30;;
57697;SDS011;43531;52.152;6.366;2023-10-13T01:27:49;21.35;;;15.82;;
57697;SDS011;43531;52.152;6.366;2023-10-13T01:28:22;19.83;;;13.40;;
57697;SDS011;43531;52.152;6.366;2023-10-13T01:28:58;23.85;;;14.27;;
57697;SDS011;43531;52.152;6.366;2023-10-13T01:29:30;26.65;;;17.10;;
57697;SDS011;43531;52.152;6.366;2023-10-13T01:30:01;19.17;;;13.10;;
57697;SDS011;43531;52.152;6.366;2023-10-13T01:30:54;27.83;;;15.52;;
57697;SDS011;43531;52.152;6.366;2023-10-13T01:31:25;21.33;;;14.45;;
57697;SDS011;43531;52.152;6.366;2023-10-13T01:32:02;22.45;;;14.35;;
57697;SDS011;43531;52.152;6.366;2023-10-13T01:32:33;19.05;;;14.00;;
57697;SDS011;43531;52.152;6.366;2023-10-13T01:33:05;18.73;;;13.38;;
57697;SDS011;43531;52.152;6.366;2023-10-13T01:33:40;20.30;;;14.60;;
57697;SDS011;43531;52.152;6.366;2023-10-13T01:34:13;23.05;;;14.75;;
57697;SDS011;43531;52.152;6.366;2023-10-13T01:34:54;26.88;;;14.80;;
57697;SDS011;43531;52.152;6.366;2023-10-13T01:35:27;18.23;;;12.85;;
57697;SDS011;43531;52.152;6.366;2023-10-13T01:36:08;18.85;;;14.73;;
57697;SDS011;43531;52.152;6.366;2023-10-13T01:36:40;18.42;;;13.77;;
57697;SDS011;43531;52.152;6.366;2023-10-13T01:37:11;19.10;;;12.68;;
57697;SDS011;43531;52.152;6.366;2023-10-13T01:37:43;22.20;;;14.57;;
57697;SDS011;43531;52.152;6.366;2023-10-13T01:38:15;23.65;;;14.80;;
57697;SDS011;43531;52.152;6.366;2023-10-13T01:38:47;19.60;;;14.27;;
57697;SDS011;43531;52.152;6.366;2023-10-13T01:39:20;25.70;;;14.18;;
57697;SDS011;43531;52.152;6.366;2023-10-13T01:39:53;19.45;;;13.43;;
57697;SDS011;43531;52.152;6.366;2023-10-13T01:40:24;20.73;;;14.70;;
57697;SDS011;43531;52.152;6.366;2023-10-13T01:41:00;23.13;;;13.73;;
57697;SDS011;43531;52.152;6.366;2023-10-13T01:41:36;21.02;;;13.82;;
57697;SDS011;43531;52.152;6.366;2023-10-13T01:42:10;17.73;;;13.52;;
57697;SDS011;43531;52.152;6.366;2023-10-13T01:42:48;18.33;;;13.93;;
57697;SDS011;43531;52.152;6.366;2023-10-13T01:43:26;19.98;;;13.20;;
57697;SDS011;43531;52.152;6.366;2023-10-13T01:43:58;17.65;;;13.38;;
57697;SDS011;43531;52.152;6.366;2023-10-13T01:44:29;23.42;;;15.10;;
57697;SDS011;43531;52.152;6.366;2023-10-13T01:45:04;23.98;;;14.27;;
57697;SDS011;43531;52.152;6.366;2023-10-13T01:45:37;19.73;;;14.40;;
57697;SDS011;43531;52.152;6.366;2023-10-13T01:46:21;23.50;;;14.38;;
57697;SDS011;43531;52.152;6.366;2023-10-13T01:46:53;28.40;;;14.35;;
57697;SDS011;43531;52.152;6.366;2023-10-13T01:47:25;20.65;;;12.38;;
57697;SDS011;43531;52.152;6.366;2023-10-13T01:47:59;18.65;;;13.05;;
57697;SDS011;43531;52.152;6.366;2023-10-13T01:48:33;22.13;;;12.88;;
57697;SDS011;43531;52.152;6.366;2023-10-13T01:49:09;24.25;;;13.43;;
57697;SDS011;43531;52.152;6.366;2023-10-13T01:49:42;17.88;;;12.07;;
57697;SDS011;43531;52.152;6.366;2023-10-13T01:50:19;18.77;;;12.88;;
57697;SDS011;43531;52.152;6.366;2023-10-13T01:50:58;18.25;;;13.88;;
57697;SDS011;43531;52.152;6.366;2023-10-13T01:51:36;20.83;;;13.43;;
57697;SDS011;43531;52.152;6.366;2023-10-13T01:52:11;18.15;;;13.93;;
57697;SDS011;43531;52.152;6.366;2023-10-13T01:52:43;17.30;;;12.38;;
57697;SDS011;43531;52.152;6.366;2023-10-13T01:53:15;25.38;;;13.15;;
57697;SDS011;43531;52.152;6.366;2023-10-13T01:53:49;19.38;;;12.93;;
57697;SDS011;43531;52.152;6.366;2023-10-13T01:54:28;18.52;;;13.32;;
57697;SDS011;43531;52.152;6.366;2023-10-13T01:54:59;18.85;;;14.23;;
57697;SDS011;43531;52.152;6.366;2023-10-13T01:55:32;17.92;;;14.10;;
57697;SDS011;43531;52.152;6.366;2023-10-13T01:56:14;18.35;;;12.68;;
57697;SDS011;43531;52.152;6.366;2023-10-13T01:57:05;18.73;;;13.68;;
57697;SDS011;43531;52.152;6.366;2023-10-13T01:57:36;22.65;;;13.65;;
57697;SDS011;43531;52.152;6.366;2023-10-13T01:58:14;19.95;;;13.13;;
57697;SDS011;43531;52.152;6.366;2023-10-13T01:58:46;19.25;;;11.63;;
57697;SDS011;43531;52.152;6.366;2023-10-13T01:59:19;17.15;;;13.75;;
57697;SDS011;43531;52.152;6.366;2023-10-13T01:59:51;20.20;;;13.95;;
57697;SDS011;43531;52.152;6.366;2023-10-13T02:00:23;16.40;;;12.45;;
57697;SDS011;43531;52.152;6.366;2023-10-13T02:00:56;25.58;;;13.35;;
57697;SDS011;43531;52.152;6.366;2023-10-13T02:01:35;19.50;;;12.50;;
57697;SDS011;43531;52.152;6.366;2023-10-13T02:02:06;18.60;;;14.45;;
57697;SDS011;43531;52.152;6.366;2023-10-13T02:02:38;16.45;;;11.82;;
57697;SDS011;43531;52.152;6.366;2023-10-13T02:03:16;23.77;;;13.00;;
57697;SDS011;43531;52.152;6.366;2023-10-13T02:03:48;18.73;;;12.05;;
57697;SDS011;43531;52.152;6.366;2023-10-13T02:04:20;18.25;;;12.40;;
57697;SDS011;43531;52.152;6.366;2023-10-13T02:04:53;19.35;;;12.95;;
57697;SDS011;43531;52.152;6.366;2023-10-13T02:05:29;26.13;;;12.82;;
57697;SDS011;43531;52.152;6.366;2023-10-13T02:06:07;15.43;;;12.30;;
57697;SDS011;43531;52.152;6.366;2023-10-13T02:06:48;18.25;;;12.70;;
57697;SDS011;43531;52.152;6.366;2023-10-13T02:07:19;21.85;;;12.85;;
57697;SDS011;43531;52.152;6.366;2023-10-13T02:07:51;15.18;;;11.30;;
57697;SDS011;43531;52.152;6.366;2023-10-13T02:08:25;15.98;;;11.95;;
57697;SDS011;43531;52.152;6.366;2023-10-13T02:08:59;18.80;;;13.05;;
57697;SDS011;43531;52.152;6.366;2023-10-13T02:09:41;20.35;;;13.18;;
57697;SDS011;43531;52.152;6.366;2023-10-13T02:10:16;16.65;;;12.45;;
57697;SDS011;43531;52.152;6.366;2023-10-13T02:10:49;20.08;;;13.05;;
57697;SDS011;43531;52.152;6.366;2023-10-13T02:11:24;18.98;;;14.35;;
57697;SDS011;43531;52.152;6.366;2023-10-13T02:11:55;18.08;;;11.77;;
57697;SDS011;43531;52.152;6.366;2023-10-13T02:12:28;22.60;;;13.60;;
57697;SDS011;43531;52.152;6.366;2023-10-13T02:13:08;19.70;;;13.40;;
57697;SDS011;43531;52.152;6.366;2023-10-13T02:13:46;29.90;;;13.40;;
57697;SDS011;43531;52.152;6.366;2023-10-13T02:14:22;18.20;;;12.68;;
57697;SDS011;43531;52.152;6.366;2023-10-13T02:14:57;21.50;;;13.95;;
57697;SDS011;43531;52.152;6.366;2023-10-13T02:15:33;20.60;;;11.98;;
57697;SDS011;43531;52.152;6.366;2023-10-13T02:16:06;26.13;;;13.30;;
57697;SDS011;43531;52.152;6.366;2023-10-13T02:16:38;16.88;;;14.23;;
57697;SDS011;43531;52.152;6.366;2023-10-13T02:17:11;18.25;;;12.55;;
57697;SDS011;43531;52.152;6.366;2023-10-13T02:17:47;20.10;;;13.57;;
57697;SDS011;43531;52.152;6.366;2023-10-13T02:18:23;16.38;;;12.95;;
57697;SDS011;43531;52.152;6.366;2023-10-13T02:18:58;18.60;;;12.40;;
57697;SDS011;43531;52.152;6.366;2023-10-13T02:19:35;15.05;;;12.57;;
57697;SDS011;43531;52.152;6.366;2023-10-13T02:20:11;15.32;;;12.23;;
57697;SDS011;43531;52.152;6.366;2023-10-13T02:20:47;20.38;;;12.82;;
57697;SDS011;43531;52.152;6.366;2023-10-13T02:21:25;18.45;;;13.93;;
57697;SDS011;43531;52.152;6.366;2023-10-13T02:22:03;22.67;;;12.43;;
57697;SDS011;43531;52.152;6.366;2023-10-13T02:22:35;19.77;;;12.98;;
57697;SDS011;43531;52.152;6.366;2023-10-13T02:23:09;21.95;;;13.40;;
57697;SDS011;43531;52.152;6.366;2023-10-13T02:23:44;22.27;;;13.25;;
57697;SDS011;43531;52.152;6.366;2023-10-13T02:24:31;16.60;;;11.75;;
57697;SDS011;43531;52.152;6.366;2023-10-13T02:25:03;17.70;;;13.48;;
57697;SDS011;43531;52.152;6.366;2023-10-13T02:25:37;22.45;;;12.88;;
57697;SDS011;43531;52.152;6.366;2023-10-13T02:26:17;17.50;;;13.40;;
57697;SDS011;43531;52.152;6.366;2023-10-13T02:27:02;18.67;;;12.65;;
57697;SDS011;43531;52.152;6.366;2023-10-13T02:27:40;18.70;;;13.77;;
57697;SDS011;43531;52.152;6.366;2023-10-13T02:28:13;19.85;;;12.40;;
57697;SDS011;43531;52.152;6.366;2023-10-13T02:28:45;18.35;;;12.25;;
57697;SDS011;43531;52.152;6.366;2023-10-13T02:29:22;17.80;;;13.00;;
57697;SDS011;43531;52.152;6.366;2023-10-13T02:29:54;23.52;;;13.23;;
57697;SDS011;43531;52.152;6.366;2023-10-13T02:30:36;17.20;;;12.32;;
57697;SDS011;43531;52.152;6.366;2023-10-13T02:31:09;27.63;;;13.82;;
57697;SDS011;43531;52.152;6.366;2023-10-13T02:31:41;18.63;;;13.20;;
57697;SDS011;43531;52.152;6.366;2023-10-13T02:32:14;17.90;;;11.18;;
57697;SDS011;43531;52.152;6.366;2023-10-13T02:32:50;22.25;;;12.88;;
57697;SDS011;43531;52.152;6.366;2023-10-13T02:33:21;26.45;;;13.65;;
57697;SDS011;43531;52.152;6.366;2023-10-13T02:33:53;19.50;;;14.27;;
57697;SDS011;43531;52.152;6.366;2023-10-13T02:34:25;24.40;;;12.77;;
57697;SDS011;43531;52.152;6.366;2023-10-13T02:34:57;18.45;;;12.43;;
57697;SDS011;43531;52.152;6.366;2023-10-13T02:35:38;18.70;;;12.45;;
57697;SDS011;43531;52.152;6.366;2023-10-13T02:36:13;19.50;;;11.77;;
57697;SDS011;43531;52.152;6.366;2023-10-13T02:36:44;20.42;;;12.98;;
57697;SDS011;43531;52.152;6.366;2023-10-13T02:37:19;17.80;;;12.70;;
57697;SDS011;43531;52.152;6.366;2023-10-13T02:37:51;19.90;;;12.50;;
57697;SDS011;43531;52.152;6.366;2023-10-13T02:38:27;17.85;;;12.85;;
57697;SDS011;43531;52.152;6.366;2023-10-13T02:39:04;16.50;;;11.98;;
57697;SDS011;43531;52.152;6.366;2023-10-13T02:39:39;16.25;;;11.38;;
57697;SDS011;43531;52.152;6.366;2023-10-13T02:40:14;15.90;;;11.73;;
57697;SDS011;43531;52.152;6.366;2023-10-13T02:40:45;16.70;;;12.38;;
57697;SDS011;43531;52.152;6.366;2023-10-13T02:41:18;15.20;;;11.35;;
57697;SDS011;43531;52.152;6.366;2023-10-13T02:41:57;18.83;;;12.18;;
57697;SDS011;43531;52.152;6.366;2023-10-13T02:42:29;15.15;;;11.60;;
57697;SDS011;43531;52.152;6.366;2023-10-13T02:43:01;18.15;;;10.73;;
57697;SDS011;43531;52.152;6.366;2023-10-13T02:43:33;18.05;;;10.93;;
57697;SDS011;43531;52.152;6.366;2023-10-13T02:44:09;20.60;;;10.82;;
57697;SDS011;43531;52.152;6.366;2023-10-13T02:44:42;16.75;;;13.27;;
57697;SDS011;43531;52.152;6.366;2023-10-13T02:45:18;15.32;;;11.70;;
57697;SDS011;43531;52.152;6.366;2023-10-13T02:45:57;24.17;;;12.52;;
57697;SDS011;43531;52.152;6.366;2023-10-13T02:46:29;13.73;;;10.77;;
57697;SDS011;43531;52.152;6.366;2023-10-13T02:47:02;17.38;;;11.65;;
57697;SDS011;43531;52.152;6.366;2023-10-13T02:47:45;18.92;;;12.73;;
57697;SDS011;43531;52.152;6.366;2023-10-13T02:48:16;19.95;;;12.23;;
57697;SDS011;43531;52.152;6.366;2023-10-13T02:48:49;21.70;;;11.25;;
57697;SDS011;43531;52.152;6.366;2023-10-13T02:49:27;14.70;;;10.40;;
57697;SDS011;43531;52.152;6.366;2023-10-13T02:49:59;16.45;;;10.55;;
57697;SDS011;43531;52.152;6.366;2023-10-13T02:50:32;15.70;;;11.02;;
57697;SDS011;43531;52.152;6.366;2023-10-13T02:51:04;15.25;;;11.02;;
57697;SDS011;43531;52.152;6.366;2023-10-13T02:51:46;17.13;;;11.32;;
57697;SDS011;43531;52.152;6.366;2023-10-13T02:52:18;14.45;;;11.95;;
57697;SDS011;43531;52.152;6.366;2023-10-13T02:52:49;16.45;;;10.43;;
57697;SDS011;43531;52.152;6.366;2023-10-13T02:53:23;19.83;;;11.07;;
57697;SDS011;43531;52.152;6.366;2023-10-13T02:53:59;17.23;;;11.10;;
57697;SDS011;43531;52.152;6.366;2023-10-13T02:54:35;15.23;;;11.38;;
57697;SDS011;43531;52.152;6.366;2023-10-13T02:55:13;19.00;;;10.63;;
57697;SDS011;43531;52.152;6.366;2023-10-13T02:55:50;15.82;;;10.73;;
57697;SDS011;43531;52.152;6.366;2023-10-13T02:56:24;15.15;;;10.27;;
57697;SDS011;43531;52.152;6.366;2023-10-13T02:56:56;13.00;;;10.40;;
57697;SDS011;43531;52.152;6.366;2023-10-13T02:57:35;11.60;;;9.68;;
57697;SDS011;43531;52.152;6.366;2023-10-13T02:58:06;26.15;;;11.63;;
57697;SDS011;43531;52.152;6.366;2023-10-13T02:58:40;15.30;;;11.27;;
57697;SDS011;43531;52.152;6.366;2023-10-13T02:59:17;12.23;;;10.02;;
57697;SDS011;43531;52.152;6.366;2023-10-13T03:00:06;13.27;;;10.82;;
57697;SDS011;43531;52.152;6.366;2023-10-13T03:00:44;17.50;;;10.65;;
57697;SDS011;43531;52.152;6.366;2023-10-13T03:01:17;17.52;;;10.55;;
57697;SDS011;43531;52.152;6.366;2023-10-13T03:01:49;18.45;;;10.52;;
57697;SDS011;43531;52.152;6.366;2023-10-13T03:02:24;15.98;;;10.30;;
57697;SDS011;43531;52.152;6.366;2023-10-13T03:02:57;13.82;;;10.38;;
57697;SDS011;43531;52.152;6.366;2023-10-13T03:03:32;24.60;;;10.73;;
57697;SDS011;43531;52.152;6.366;2023-10-13T03:04:05;11.23;;;9.32;;
57697;SDS011;43531;52.152;6.366;2023-10-13T03:04:40;15.60;;;10.52;;
57697;SDS011;43531;52.152;6.366;2023-10-13T03:05:12;14.07;;;10.35;;
57697;SDS011;43531;52.152;6.366;2023-10-13T03:05:45;20.02;;;12.95;;
57697;SDS011;43531;52.152;6.366;2023-10-13T03:06:17;20.83;;;10.32;;
57697;SDS011;43531;52.152;6.366;2023-10-13T03:06:52;16.80;;;10.82;;
57697;SDS011;43531;52.152;6.366;2023-10-13T03:07:27;14.88;;;10.07;;
57697;SDS011;43531;52.152;6.366;2023-10-13T03:08:01;19.13;;;9.93;;
57697;SDS011;43531;52.152;6.366;2023-10-13T03:08:35;16.83;;;10.73;;
57697;SDS011;43531;52.152;6.366;2023-10-13T03:09:08;12.18;;;10.77;;
57697;SDS011;43531;52.152;6.366;2023-10-13T03:09:50;15.77;;;9.25;;
57697;SDS011;43531;52.152;6.366;2023-10-13T03:10:23;13.77;;;8.82;;
57697;SDS011;43531;52.152;6.366;2023-10-13T03:11:00;15.95;;;9.55;;
57697;SDS011;43531;52.152;6.366;2023-10-13T03:11:34;13.55;;;9.38;;
57697;SDS011;43531;52.152;6.366;2023-10-13T03:12:06;13.55;;;9.55;;
57697;SDS011;43531;52.152;6.366;2023-10-13T03:12:39;14.35;;;10.18;;
57697;SDS011;43531;52.152;6.366;2023-10-13T03:13:11;17.20;;;10.45;;
57697;SDS011;43531;52.152;6.366;2023-10-13T03:13:43;17.30;;;9.43;;
57697;SDS011;43531;52.152;6.366;2023-10-13T03:14:20;18.02;;;10.48;;
57697;SDS011;43531;52.152;6.366;2023-10-13T03:14:56;10.60;;;8.68;;
57697;SDS011;43531;52.152;6.366;2023-10-13T03:15:30;18.75;;;10.68;;
57697;SDS011;43531;52.152;6.366;2023-10-13T03:16:12;13.70;;;9.70;;
57697;SDS011;43531;52.152;6.366;2023-10-13T03:17:26;16.73;;;10.23;;
57697;SDS011;43531;52.152;6.366;2023-10-13T03:18:05;15.68;;;9.98;;
57697;SDS011;43531;52.152;6.366;2023-10-13T03:18:36;14.07;;;10.13;;
57697;SDS011;43531;52.152;6.366;2023-10-13T03:19:09;13.10;;;9.65;;
57697;SDS011;43531;52.152;6.366;2023-10-13T03:19:44;13.13;;;9.50;;
57697;SDS011;43531;52.152;6.366;2023-10-13T03:20:23;18.88;;;11.77;;
57697;SDS011;43531;52.152;6.366;2023-10-13T03:20:57;14.25;;;10.75;;
57697;SDS011;43531;52.152;6.366;2023-10-13T03:21:30;15.48;;;9.82;;
57697;SDS011;43531;52.152;6.366;2023-10-13T03:22:03;16.42;;;9.23;;
57697;SDS011;43531;52.152;6.366;2023-10-13T03:22:42;12.82;;;9.65;;
57697;SDS011;43531;52.152;6.366;2023-10-13T03:23:16;16.55;;;9.57;;
57697;SDS011;43531;52.152;6.366;2023-10-13T03:23:48;18.35;;;10.90;;
57697;SDS011;43531;52.152;6.366;2023-10-13T03:24:20;16.10;;;10.02;;
57697;SDS011;43531;52.152;6.366;2023-10-13T03:25:05;15.32;;;9.60;;
57697;SDS011;43531;52.152;6.366;2023-10-13T03:25:38;15.20;;;9.15;;
57697;SDS011;43531;52.152;6.366;2023-10-13T03:26:14;13.57;;;9.55;;